createdAt,value
2023-10-26T00:01:13.641Z,74.30
2023-10-26T00:03:41.517Z,74.30
2023-10-26T00:06:10.700Z,74.40
2023-10-26T00:08:38.496Z,74.30
2023-10-26T00:11:06.801Z,74.30
2023-10-26T00:13:34.610Z,74.30
2023-10-26T00:16:02.426Z,74.40
2023-10-26T00:18:30.244Z,74.30
2023-10-26T00:20:59.249Z,74.30
2023-10-26T00:23:28.666Z,74.40
2023-10-26T00:25:56.465Z,74.40
2023-10-26T00:28:24.276Z,74.30
2023-10-26T00:30:52.092Z,74.30
2023-10-26T00:33:19.939Z,74.30
2023-10-26T00:35:47.816Z,74.20
2023-10-26T00:38:15.566Z,74.30
2023-10-26T00:40:46.217Z,74.30
2023-10-26T00:43:21.237Z,74.30
2023-10-26T00:45:51.595Z,74.40
2023-10-26T00:48:19.736Z,74.40
2023-10-26T00:50:48.396Z,74.30
2023-10-26T00:53:17.094Z,74.20
2023-10-26T00:55:50.931Z,74.30
2023-10-26T00:58:20.204Z,74.30
2023-10-26T01:00:48.080Z,74.30
2023-10-26T01:03:16.335Z,74.20
2023-10-26T01:05:44.130Z,74.20
2023-10-26T01:08:12.115Z,74.20
2023-10-26T01:10:39.957Z,74.20
2023-10-26T01:13:10.709Z,74.20
2023-10-26T01:15:38.483Z,74.20
2023-10-26T01:18:08.042Z,74.20
2023-10-26T01:20:35.918Z,74.20
2023-10-26T01:23:05.088Z,74.20
2023-10-26T01:25:32.872Z,74.20
2023-10-26T01:28:00.698Z,74.20
2023-10-26T01:30:29.330Z,74.20
2023-10-26T01:32:57.392Z,75.00
2023-10-26T01:35:25.302Z,74.20
2023-10-26T01:37:53.154Z,74.20
2023-10-26T01:40:22.263Z,74.20
2023-10-26T01:42:50.022Z,74.20
2023-10-26T01:45:17.819Z,74.20
2023-10-26T01:47:45.622Z,74.20
2023-10-26T01:50:13.451Z,74.10
2023-10-26T01:52:41.257Z,74.20
2023-10-26T01:55:09.772Z,74.10
2023-10-26T01:57:38.872Z,74.20
2023-10-26T02:00:09.784Z,74.10
2023-10-26T02:02:40.593Z,74.10
2023-10-26T02:05:09.403Z,74.10
2023-10-26T02:07:37.257Z,74.10
2023-10-26T02:10:05.413Z,74.10
2023-10-26T02:12:33.180Z,74.10
2023-10-26T02:15:02.262Z,74.10
2023-10-26T02:17:30.185Z,74.10
2023-10-26T02:19:58.301Z,74.10
2023-10-26T02:22:26.138Z,74.10
2023-10-26T02:24:53.869Z,74.10
2023-10-26T02:27:21.875Z,74.10
2023-10-26T02:29:50.137Z,74.10
2023-10-26T02:32:19.697Z,74.10
2023-10-26T02:34:47.873Z,74.10
2023-10-26T02:37:18.301Z,74.10
2023-10-26T02:39:46.079Z,74.00
2023-10-26T02:42:15.188Z,74.10
2023-10-26T02:44:43.175Z,74.00
2023-10-26T02:47:11.092Z,74.00
2023-10-26T02:49:40.227Z,74.10
2023-10-26T02:52:08.897Z,74.10
2023-10-26T02:54:37.284Z,74.00
2023-10-26T02:57:05.537Z,74.00
2023-10-26T02:59:33.385Z,74.10
2023-10-26T03:02:01.165Z,74.00
2023-10-26T03:04:29.093Z,74.00
2023-10-26T03:06:58.935Z,74.00
2023-10-26T03:09:26.897Z,74.10
2023-10-26T03:11:54.853Z,73.90
2023-10-26T03:14:22.656Z,74.00
2023-10-26T03:16:50.678Z,73.90
2023-10-26T03:19:18.483Z,73.90
2023-10-26T03:21:46.303Z,73.90
2023-10-26T03:24:15.444Z,73.90
2023-10-26T03:26:43.225Z,73.90
2023-10-26T03:29:10.970Z,73.90
2023-10-26T03:31:39.470Z,73.90
2023-10-26T03:34:07.238Z,74.00
2023-10-26T03:36:35.170Z,73.90
2023-10-26T03:39:03.063Z,73.90
2023-10-26T03:41:32.264Z,73.90
2023-10-26T03:44:00.288Z,73.90
2023-10-26T03:46:28.291Z,73.90
2023-10-26T03:48:56.067Z,73.90
2023-10-26T03:51:23.897Z,73.90
2023-10-26T03:53:51.654Z,73.90
2023-10-26T03:56:19.476Z,73.90
2023-10-26T03:58:49.039Z,73.90
2023-10-26T04:01:16.819Z,73.90
2023-10-26T04:03:44.621Z,74.00
2023-10-26T04:06:12.480Z,74.80
2023-10-26T04:08:40.288Z,74.10
2023-10-26T04:11:08.134Z,74.10
2023-10-26T04:13:36.460Z,75.00
2023-10-26T04:16:08.833Z,74.30
2023-10-26T04:18:36.750Z,74.30
2023-10-26T04:21:05.473Z,74.30
2023-10-26T04:23:33.364Z,74.30
2023-10-26T04:26:01.107Z,74.30
2023-10-26T04:28:28.855Z,74.20
2023-10-26T04:30:56.587Z,74.20
2023-10-26T04:33:25.715Z,74.20
2023-10-26T04:35:53.657Z,74.20
2023-10-26T04:38:21.416Z,74.10
2023-10-26T04:40:49.525Z,74.10
2023-10-26T04:43:17.264Z,74.10
2023-10-26T04:45:45.120Z,74.10
2023-10-26T04:48:12.982Z,74.00
2023-10-26T04:50:42.092Z,74.00
2023-10-26T04:53:09.877Z,73.90
2023-10-26T04:55:37.773Z,73.90
2023-10-26T04:58:05.714Z,73.90
2023-10-26T05:00:33.682Z,73.80
2023-10-26T05:03:01.654Z,73.80
2023-10-26T05:05:29.433Z,73.80
2023-10-26T05:07:58.747Z,73.70
2023-10-26T05:10:26.515Z,73.80
2023-10-26T05:12:54.375Z,74.00
2023-10-26T05:15:22.236Z,74.10
2023-10-26T05:17:50.141Z,74.20
2023-10-26T05:20:18.019Z,74.10
2023-10-26T05:22:45.830Z,74.30
2023-10-26T05:25:15.018Z,74.20
2023-10-26T05:27:43.050Z,74.30
2023-10-26T05:30:11.101Z,74.30
2023-10-26T05:32:39.963Z,74.30
2023-10-26T05:35:08.258Z,74.40
2023-10-26T05:37:36.289Z,74.40
2023-10-26T05:40:05.504Z,74.50
2023-10-26T05:42:36.252Z,74.50
2023-10-26T05:45:04.197Z,74.50
2023-10-26T05:47:32.030Z,74.50
2023-10-26T05:49:59.982Z,74.50
2023-10-26T05:52:27.744Z,74.50
2023-10-26T05:54:56.191Z,74.60
2023-10-26T05:57:24.069Z,74.60
2023-10-26T05:59:53.263Z,74.50
2023-10-26T06:02:22.434Z,74.50
2023-10-26T06:04:50.455Z,74.50
2023-10-26T06:07:18.205Z,74.40
2023-10-26T06:09:45.960Z,74.30
2023-10-26T06:12:14.247Z,74.40
2023-10-26T06:14:42.197Z,74.40
2023-10-26T06:17:11.648Z,74.30
2023-10-26T06:19:39.389Z,74.30
2023-10-26T06:22:07.146Z,74.20
2023-10-26T06:24:34.986Z,74.20
2023-10-26T06:27:04.020Z,74.10
2023-10-26T06:29:31.889Z,74.10
2023-10-26T06:31:59.735Z,74.10
2023-10-26T06:34:29.845Z,74.10
2023-10-26T06:36:57.610Z,74.10
2023-10-26T06:39:25.539Z,74.00
2023-10-26T06:41:53.386Z,74.00
2023-10-26T06:44:24.548Z,74.10
2023-10-26T06:46:52.307Z,74.00
2023-10-26T06:49:29.602Z,74.00
2023-10-26T06:52:00.786Z,74.00
2023-10-26T06:54:28.577Z,73.90
2023-10-26T06:56:57.731Z,73.90
2023-10-26T06:59:25.470Z,73.90
2023-10-26T07:02:08.868Z,73.80
2023-10-26T07:04:38.547Z,73.80
2023-10-26T07:07:09.138Z,73.80
2023-10-26T07:09:37.925Z,73.80
2023-10-26T07:12:06.230Z,73.70
2023-10-26T07:14:35.298Z,73.80
2023-10-26T07:17:03.165Z,73.60
2023-10-26T07:19:30.951Z,73.70
2023-10-26T07:21:58.744Z,73.70
2023-10-26T07:24:28.414Z,73.60
2023-10-26T07:26:56.254Z,73.60
2023-10-26T07:29:24.011Z,73.50
2023-10-26T07:31:51.950Z,73.50
2023-10-26T07:34:19.775Z,73.50
2023-10-26T07:36:47.561Z,73.50
2023-10-26T07:39:45.540Z,73.50
2023-10-26T07:42:07.731Z,73.50
2023-10-26T07:44:39.965Z,73.50
2023-10-26T07:47:09.608Z,73.50
2023-10-26T07:49:37.639Z,73.50
2023-10-26T07:52:06.122Z,73.50
2023-10-26T07:54:34.066Z,73.50
2023-10-26T07:57:01.909Z,73.50
2023-10-26T07:59:32.546Z,73.50
2023-10-26T08:02:00.918Z,73.60
2023-10-26T08:04:33.235Z,73.50
2023-10-26T08:07:01.874Z,73.40
2023-10-26T08:09:33.789Z,73.50
2023-10-26T08:12:01.858Z,73.50
2023-10-26T08:16:05.953Z,73.40
2023-10-26T08:17:20.169Z,73.50
2023-10-26T08:19:48.143Z,73.50
2023-10-26T08:22:15.915Z,73.60
2023-10-26T08:24:43.775Z,73.50
2023-10-26T08:27:11.715Z,73.50
2023-10-26T08:29:39.502Z,73.50
2023-10-26T08:32:07.679Z,73.50
2023-10-26T08:34:36.897Z,73.40
2023-10-26T08:39:36.391Z,73.50
2023-10-26T08:42:05.203Z,73.40
2023-10-26T08:44:34.253Z,73.40
2023-10-26T08:47:05.275Z,73.40
2023-10-26T08:49:34.313Z,73.40
2023-10-26T08:52:04.922Z,73.40
2023-10-26T08:54:32.749Z,73.40
2023-10-26T08:57:07.522Z,73.40
2023-10-26T08:59:35.542Z,73.40
2023-10-26T09:02:03.501Z,73.40
2023-10-26T09:04:31.525Z,73.40
2023-10-26T09:06:59.593Z,73.40
2023-10-26T09:09:28.699Z,73.40
2023-10-26T09:12:10.431Z,73.40
2023-10-26T09:14:38.253Z,73.40
2023-10-26T09:17:06.176Z,73.30
2023-10-26T09:19:41.982Z,73.30
2023-10-26T09:22:13.429Z,73.30
2023-10-26T09:24:42.738Z,73.30
2023-10-26T09:27:19.085Z,73.30
2023-10-26T09:29:48.340Z,73.30
2023-10-26T09:32:16.229Z,73.30
2023-10-26T09:34:46.268Z,73.30
2023-10-26T09:37:14.455Z,73.30
2023-10-26T09:39:43.663Z,73.20
2023-10-26T09:42:12.617Z,73.30
2023-10-26T09:44:40.868Z,73.30
2023-10-26T09:47:08.090Z,73.10
2023-10-26T09:49:36.508Z,73.20
2023-10-26T09:52:05.161Z,73.10
2023-10-26T09:54:44.187Z,73.20
2023-10-26T09:57:17.637Z,73.20
2023-10-26T09:59:45.628Z,73.20
2023-10-26T10:02:17.524Z,73.10
2023-10-26T10:04:46.762Z,73.10
2023-10-26T10:07:18.253Z,73.30
2023-10-26T10:10:07.362Z,73.20
2023-10-26T10:12:36.917Z,73.20
2023-10-26T10:15:29.058Z,73.30
2023-10-26T10:18:14.108Z,73.30
2023-10-26T10:20:43.143Z,73.30
2023-10-26T10:23:28.975Z,73.20
2023-10-26T10:28:52.410Z,72.60
2023-10-26T10:31:25.349Z,71.20
2023-10-26T10:34:06.904Z,70.10
2023-10-26T10:37:12.862Z,69.90
2023-10-26T10:40:02.042Z,69.60
2023-10-26T10:42:32.759Z,69.30
2023-10-26T10:45:02.062Z,69.40
2023-10-26T10:47:31.386Z,69.50
2023-10-26T10:50:17.318Z,69.40
2023-10-26T10:52:45.331Z,69.40
2023-10-26T10:55:13.414Z,69.40
2023-10-26T10:57:56.214Z,69.50
2023-10-26T11:00:25.502Z,69.40
2023-10-26T11:02:57.923Z,69.40
2023-10-26T11:05:37.469Z,69.40
2023-10-26T11:08:06.861Z,69.40
2023-10-26T11:10:34.841Z,69.30
2023-10-26T11:13:04.404Z,69.30
2023-10-26T11:15:33.400Z,69.30
2023-10-26T11:18:02.052Z,69.30
2023-10-26T11:20:38.376Z,69.30
2023-10-26T11:23:06.374Z,69.30
2023-10-26T11:25:34.424Z,69.30
2023-10-26T11:28:04.484Z,69.40
2023-10-26T11:30:32.960Z,69.50
2023-10-26T11:33:00.868Z,69.50
2023-10-26T11:35:28.702Z,69.50
2023-10-26T11:38:06.605Z,69.60
2023-10-26T11:40:34.553Z,69.60
2023-10-26T11:43:05.199Z,69.60
2023-10-26T11:45:49.813Z,69.70
2023-10-26T11:48:27.738Z,69.70
2023-10-26T11:50:55.837Z,69.70
2023-10-26T11:53:24.396Z,69.70
2023-10-26T11:55:52.767Z,69.80
2023-10-26T11:58:22.137Z,69.80
2023-10-26T12:00:49.951Z,69.90
2023-10-26T12:03:18.314Z,69.90
2023-10-26T12:05:46.128Z,69.90
2023-10-26T12:08:13.875Z,70.00
2023-10-26T12:10:42.360Z,70.00
2023-10-26T12:13:10.134Z,70.00
2023-10-26T12:15:39.254Z,70.30
2023-10-26T12:18:07.211Z,70.10
2023-10-26T12:20:35.014Z,70.20
2023-10-26T12:23:02.801Z,70.20
2023-10-26T12:25:30.678Z,70.40
2023-10-26T12:28:20.949Z,70.40
2023-10-26T12:30:51.407Z,70.40
2023-10-26T12:33:19.567Z,70.40
2023-10-26T12:35:48.339Z,70.50
2023-10-26T12:38:16.399Z,70.50
2023-10-26T12:40:44.316Z,70.60
2023-10-26T12:43:12.057Z,70.60
2023-10-26T12:45:40.657Z,70.60
2023-10-26T12:48:09.822Z,70.60
2023-10-26T12:50:37.631Z,70.70
2023-10-26T12:53:05.760Z,70.60
2023-10-26T12:55:35.341Z,70.80
2023-10-26T12:58:03.132Z,70.80
2023-10-26T13:00:31.484Z,70.80
2023-10-26T13:02:59.491Z,70.80
2023-10-26T13:05:28.608Z,70.90
2023-10-26T13:07:56.358Z,70.90
2023-10-26T13:10:24.109Z,70.90
2023-10-26T13:12:51.930Z,70.90
2023-10-26T13:15:21.151Z,70.90
2023-10-26T13:17:49.926Z,71.00
2023-10-26T13:20:17.955Z,71.00
2023-10-26T13:22:47.086Z,71.00
2023-10-26T13:25:15.190Z,70.90
2023-10-26T13:27:42.981Z,71.10
2023-10-26T13:30:12.248Z,71.00
2023-10-26T13:32:40.332Z,71.00
2023-10-26T13:35:08.621Z,71.00
2023-10-26T13:37:36.518Z,71.00
2023-10-26T13:40:06.694Z,71.00
2023-10-26T13:42:34.520Z,71.10
2023-10-26T13:45:02.408Z,71.10
2023-10-26T13:47:30.175Z,71.10
2023-10-26T13:49:57.995Z,71.20
2023-10-26T13:52:26.143Z,71.10
2023-10-26T13:54:53.901Z,71.10
2023-10-26T13:57:25.278Z,71.20
2023-10-26T13:59:53.163Z,71.20
2023-10-26T14:02:24.529Z,71.20
2023-10-26T14:04:52.438Z,71.20
2023-10-26T14:07:20.190Z,71.30
2023-10-26T14:09:49.926Z,71.30
2023-10-26T14:12:18.518Z,71.30
2023-10-26T14:14:47.625Z,71.30
2023-10-26T14:17:15.368Z,71.40
2023-10-26T14:19:43.204Z,71.40
2023-10-26T14:22:10.987Z,71.40
2023-10-26T14:24:40.073Z,71.40
2023-10-26T14:27:07.866Z,71.50
2023-10-26T14:29:35.698Z,71.50
2023-10-26T14:32:05.258Z,71.50
2023-10-26T14:34:33.115Z,71.50
2023-10-26T14:37:01.127Z,71.50
2023-10-26T14:39:29.193Z,71.60
2023-10-26T14:41:56.915Z,71.60
2023-10-26T14:44:24.694Z,71.60
2023-10-26T14:46:52.486Z,71.60
2023-10-26T14:49:21.624Z,71.60
2023-10-26T14:51:49.833Z,71.60
2023-10-26T14:54:17.775Z,71.70
2023-10-26T14:56:45.516Z,72.40
2023-10-26T14:59:13.275Z,71.70
2023-10-26T15:01:41.080Z,71.70
2023-10-26T15:04:11.389Z,71.70
2023-10-26T15:06:40.547Z,71.70
2023-10-26T15:09:08.309Z,71.70
2023-10-26T15:11:51.856Z,71.70
2023-10-26T15:14:25.395Z,71.80
2023-10-26T15:16:53.818Z,71.80
2023-10-26T15:19:21.974Z,71.80
2023-10-26T15:21:51.116Z,71.80
2023-10-26T15:24:19.470Z,71.80
2023-10-26T15:26:47.224Z,71.80
2023-10-26T15:29:14.990Z,71.80
2023-10-26T15:31:43.651Z,71.90
2023-10-26T15:34:11.461Z,71.90
2023-10-26T15:36:39.262Z,71.90
2023-10-26T15:39:09.842Z,71.90
2023-10-26T15:41:41.020Z,72.00
2023-10-26T15:44:08.804Z,72.10
2023-10-26T15:46:36.680Z,72.90
2023-10-26T15:49:32.519Z,72.20
2023-10-26T15:51:55.099Z,72.20
2023-10-26T15:54:24.288Z,72.30
2023-10-26T15:56:52.158Z,73.20
2023-10-26T15:59:19.926Z,72.40
2023-10-26T16:01:47.738Z,72.40
2023-10-26T16:04:15.511Z,72.50
2023-10-26T16:06:43.798Z,72.50
2023-10-26T16:09:11.622Z,72.60
2023-10-26T16:11:40.802Z,72.80
2023-10-26T16:14:08.694Z,73.40
2023-10-26T16:16:37.363Z,74.10
2023-10-26T16:19:06.000Z,74.50
2023-10-26T16:21:34.090Z,75.50
2023-10-26T16:24:01.918Z,74.80
2023-10-26T16:26:29.676Z,74.90
2023-10-26T16:28:58.802Z,75.10
2023-10-26T16:31:26.579Z,75.20
2023-10-26T16:33:54.543Z,75.20
2023-10-26T16:36:24.491Z,75.30
2023-10-26T16:38:52.348Z,75.40
2023-10-26T16:41:20.392Z,75.50
2023-10-26T16:43:48.295Z,75.50
2023-10-26T16:46:18.988Z,75.40
2023-10-26T16:48:46.925Z,75.50
2023-10-26T16:51:14.779Z,75.50
2023-10-26T16:53:43.712Z,75.60
2023-10-26T16:56:11.760Z,75.50
2023-10-26T16:58:39.642Z,75.50
2023-10-26T17:01:09.354Z,75.50
2023-10-26T17:03:38.820Z,75.60
2023-10-26T17:06:09.537Z,75.90
2023-10-26T17:08:37.269Z,76.30
2023-10-26T17:11:05.401Z,76.60
2023-10-26T17:13:33.168Z,76.80
2023-10-26T17:16:00.985Z,76.90
2023-10-26T17:18:28.815Z,76.90
2023-10-26T17:20:59.013Z,76.90
2023-10-26T17:23:26.883Z,77.00
2023-10-26T17:25:54.788Z,77.00
2023-10-26T17:28:22.573Z,77.00
2023-10-26T17:30:50.454Z,77.00
2023-10-26T17:33:18.656Z,76.90
2023-10-26T17:35:48.692Z,76.70
2023-10-26T17:38:18.066Z,76.70
2023-10-26T17:40:47.001Z,76.50
2023-10-26T17:43:15.055Z,76.40
2023-10-26T17:45:43.032Z,76.30
2023-10-26T17:48:11.625Z,76.30
2023-10-26T17:50:40.948Z,76.20
2023-10-26T17:53:08.880Z,76.10
2023-10-26T17:55:38.041Z,76.00
2023-10-26T17:58:05.805Z,75.90
2023-10-26T18:00:33.575Z,75.80
2023-10-26T18:03:01.390Z,75.80
2023-10-26T18:05:29.154Z,75.70
2023-10-26T18:07:56.909Z,75.60
2023-10-26T18:10:24.661Z,75.60
2023-10-26T18:12:53.805Z,75.60
2023-10-26T18:15:21.720Z,75.50
2023-10-26T18:17:49.477Z,75.60
2023-10-26T18:20:17.374Z,75.60
2023-10-26T18:22:45.949Z,75.60
2023-10-26T18:25:13.740Z,75.70
2023-10-26T18:27:41.541Z,75.60
2023-10-26T18:30:11.884Z,75.70
2023-10-26T18:32:40.068Z,75.70
2023-10-26T18:35:09.153Z,75.70
2023-10-26T18:37:37.370Z,75.70
2023-10-26T18:40:06.911Z,75.70
2023-10-26T18:42:34.711Z,75.70
2023-10-26T18:45:02.476Z,75.70
2023-10-26T18:47:31.611Z,75.70
2023-10-26T18:49:59.513Z,75.70
2023-10-26T18:52:27.257Z,75.70
2023-10-26T18:54:55.702Z,75.70
2023-10-26T18:57:23.492Z,75.80
2023-10-26T18:59:51.222Z,75.70
2023-10-26T19:02:18.974Z,75.70
2023-10-26T19:04:48.038Z,75.70
2023-10-26T19:07:15.854Z,75.70
2023-10-26T19:09:43.822Z,75.60
2023-10-26T19:12:11.822Z,75.70
2023-10-26T19:14:39.713Z,75.70
2023-10-26T19:17:07.464Z,75.70
2023-10-26T19:19:35.255Z,75.70
2023-10-26T19:22:04.533Z,75.70
2023-10-26T19:24:32.291Z,75.70
2023-10-26T19:27:00.243Z,75.70
2023-10-26T19:29:28.004Z,75.70
2023-10-26T19:31:55.796Z,75.60
2023-10-26T19:34:23.573Z,75.70
2023-10-26T19:36:51.434Z,75.70
2023-10-26T19:39:20.572Z,75.70
2023-10-26T19:41:48.317Z,75.80
2023-10-26T19:44:16.159Z,75.60
2023-10-26T19:46:43.996Z,75.70
2023-10-26T19:49:11.885Z,75.70
2023-10-26T19:51:39.699Z,75.60
2023-10-26T19:54:07.531Z,75.70
2023-10-26T19:56:36.606Z,75.70
2023-10-26T19:59:04.776Z,75.60
2023-10-26T20:01:32.676Z,75.50
2023-10-26T20:04:01.126Z,75.50
2023-10-26T20:06:28.875Z,75.40
2023-10-26T20:08:56.694Z,75.40
2023-10-26T20:11:24.452Z,75.40
2023-10-26T20:13:53.577Z,75.20
2023-10-26T20:16:21.410Z,75.20
2023-10-26T20:18:51.237Z,75.20
2023-10-26T20:21:19.158Z,75.10
2023-10-26T20:23:46.916Z,75.10
2023-10-26T20:26:14.697Z,75.10
2023-10-26T20:28:42.461Z,75.10
2023-10-26T20:31:11.647Z,75.10
2023-10-26T20:33:39.482Z,75.10
2023-10-26T20:36:08.171Z,75.10
2023-10-26T20:38:36.016Z,75.00
2023-10-26T20:41:03.866Z,75.10
2023-10-26T20:43:31.684Z,75.10
2023-10-26T20:46:00.723Z,75.10
2023-10-26T20:48:30.460Z,75.00
2023-10-26T20:50:59.930Z,75.00
2023-10-26T20:53:28.835Z,75.00
2023-10-26T20:55:59.926Z,75.00
2023-10-26T20:58:27.757Z,75.00
2023-10-26T21:00:55.550Z,75.00
2023-10-26T21:03:23.593Z,75.00
2023-10-26T21:05:53.124Z,75.00
2023-10-26T21:08:21.784Z,74.80
2023-10-26T21:10:49.569Z,74.90
2023-10-26T21:13:17.424Z,75.00
2023-10-26T21:15:45.327Z,74.90
2023-10-26T21:18:13.206Z,74.90
2023-10-26T21:20:41.430Z,74.90
2023-10-26T21:23:10.526Z,75.00
2023-10-26T21:25:38.275Z,74.80
2023-10-26T21:28:06.088Z,74.90
2023-10-26T21:30:36.198Z,74.80
2023-10-26T21:33:04.379Z,74.80
2023-10-26T21:35:36.992Z,74.80
2023-10-26T21:38:07.431Z,74.80
2023-10-26T21:40:38.990Z,74.80
2023-10-26T21:43:06.812Z,74.80
2023-10-26T21:45:37.106Z,75.00
2023-10-26T21:48:05.315Z,74.70
2023-10-26T21:50:33.836Z,74.80
2023-10-26T21:53:01.684Z,74.70
2023-10-26T21:55:29.453Z,74.70
2023-10-26T21:57:58.637Z,74.70
2023-10-26T22:00:29.027Z,74.80
2023-10-26T22:02:57.347Z,74.70
2023-10-26T22:05:25.187Z,74.70
2023-10-26T22:07:52.938Z,74.70
2023-10-26T22:10:20.734Z,74.70
2023-10-26T22:12:48.619Z,74.80
2023-10-26T22:15:17.801Z,74.70
2023-10-26T22:17:45.632Z,74.80
2023-10-26T22:20:13.500Z,74.70
2023-10-26T22:22:41.242Z,74.80
2023-10-26T22:25:09.337Z,74.70
2023-10-26T22:27:37.146Z,74.70
2023-10-26T22:30:05.741Z,74.70
2023-10-26T22:32:34.901Z,74.70
2023-10-26T22:35:02.743Z,74.80
2023-10-26T22:37:30.660Z,75.40
2023-10-26T22:39:58.446Z,74.70
2023-10-26T22:42:26.196Z,74.70
2023-10-26T22:44:53.968Z,74.70
2023-10-26T22:47:21.716Z,74.70
2023-10-26T22:49:50.931Z,74.70
2023-10-26T22:52:19.093Z,74.70
2023-10-26T22:54:47.074Z,74.70
2023-10-26T22:57:14.833Z,74.70
2023-10-26T22:59:42.694Z,74.70
2023-10-26T23:02:10.965Z,74.70
2023-10-26T23:04:38.838Z,74.70
2023-10-26T23:07:08.161Z,74.70
2023-10-26T23:09:35.977Z,74.70
2023-10-26T23:12:03.856Z,74.60
2023-10-26T23:14:31.632Z,74.70
2023-10-26T23:16:59.613Z,74.70
2023-10-26T23:19:27.965Z,74.60
2023-10-26T23:21:55.786Z,74.60
2023-10-26T23:24:27.469Z,74.60
2023-10-26T23:26:55.646Z,74.70
2023-10-26T23:29:23.796Z,74.60
2023-10-26T23:31:51.576Z,74.70
2023-10-26T23:34:19.722Z,74.60
2023-10-26T23:36:47.688Z,74.60
2023-10-26T23:39:15.610Z,74.50
2023-10-26T23:41:44.847Z,74.50
2023-10-26T23:44:12.605Z,74.50
2023-10-26T23:46:40.358Z,74.50
2023-10-26T23:49:08.172Z,74.50
2023-10-26T23:51:34.976Z,74.50
2023-10-26T23:54:02.733Z,74.50
2023-10-26T23:56:30.478Z,74.50
2023-10-26T23:58:59.973Z,74.50
